createdAt,value
2018-07-02T00:00:07.114Z,20.10
2018-07-02T00:02:35.534Z,20.10
2018-07-02T00:05:04.127Z,20.20
2018-07-02T00:07:32.598Z,20.20
2018-07-02T00:10:01.084Z,20.20
2018-07-02T00:12:29.512Z,20.30
2018-07-02T00:14:59.020Z,20.30
2018-07-02T00:17:27.387Z,20.30
2018-07-02T00:19:55.731Z,20.40
2018-07-02T00:22:24.101Z,20.40
2018-07-02T00:24:58.892Z,20.50
2018-07-02T00:27:27.325Z,20.50
2018-07-02T00:29:55.704Z,20.60
2018-07-02T00:32:24.004Z,20.60
2018-07-02T00:34:52.349Z,20.70
2018-07-02T00:37:20.704Z,20.70
2018-07-02T00:39:55.626Z,20.70
2018-07-02T00:42:24.107Z,20.80
2018-07-02T00:44:52.436Z,20.70
2018-07-02T00:47:20.748Z,20.80
2018-07-02T00:49:49.076Z,20.80
2018-07-02T00:52:17.445Z,20.90
2018-07-02T00:54:45.791Z,20.90
2018-07-02T00:57:14.197Z,20.90
2018-07-02T00:59:42.554Z,20.90
2018-07-02T01:02:10.881Z,21.00
2018-07-02T01:04:39.246Z,21.00
2018-07-02T01:07:08.878Z,21.10
2018-07-02T01:09:37.323Z,21.20
2018-07-02T01:14:34.172Z,21.30
2018-07-02T01:17:02.623Z,21.30
2018-07-02T01:19:31.296Z,21.30
2018-07-02T01:24:28.080Z,21.30
2018-07-02T01:26:56.381Z,21.40
2018-07-02T01:29:24.849Z,21.50
2018-07-02T01:31:54.443Z,21.40
2018-07-02T01:34:25.634Z,21.40
2018-07-02T01:36:53.994Z,21.50
2018-07-02T01:39:22.503Z,21.60
2018-07-02T01:41:50.850Z,21.60
2018-07-02T01:44:19.127Z,21.60
2018-07-02T01:46:47.547Z,21.60
2018-07-02T01:49:15.962Z,21.60
2018-07-02T01:51:44.335Z,21.70
2018-07-02T01:54:12.620Z,21.70
2018-07-02T01:56:40.959Z,21.70
2018-07-02T01:59:09.256Z,21.70
2018-07-02T02:01:37.631Z,21.80
2018-07-02T02:04:06.263Z,21.80
2018-07-02T02:06:34.591Z,21.80
2018-07-02T02:09:03.008Z,21.90
2018-07-02T02:11:31.627Z,21.90
2018-07-02T02:14:00.038Z,21.90
2018-07-02T02:16:28.426Z,22.00
2018-07-02T02:18:56.778Z,22.00
2018-07-02T02:21:25.075Z,22.10
2018-07-02T02:23:53.395Z,22.10
2018-07-02T02:26:21.782Z,22.10
2018-07-02T02:28:50.154Z,22.20
2018-07-02T02:31:18.486Z,22.10
2018-07-02T02:33:46.854Z,22.20
2018-07-02T02:36:15.194Z,22.30
2018-07-02T02:38:43.548Z,22.30
2018-07-02T02:41:11.858Z,22.30
2018-07-02T02:43:40.176Z,22.40
2018-07-02T02:46:08.378Z,22.40
2018-07-02T02:48:36.787Z,22.50
2018-07-02T02:51:05.120Z,22.50
2018-07-02T02:53:33.547Z,22.50
2018-07-02T02:56:01.936Z,22.60
2018-07-02T02:58:30.368Z,22.60
2018-07-02T03:00:58.780Z,22.70
2018-07-02T03:03:27.288Z,22.70
2018-07-02T03:05:55.847Z,22.70
2018-07-02T03:08:24.480Z,22.70
2018-07-02T03:10:52.836Z,22.80
2018-07-02T03:13:21.179Z,22.70
2018-07-02T03:15:49.501Z,22.80
2018-07-02T03:18:17.797Z,22.90
2018-07-02T03:20:46.099Z,22.90
2018-07-02T03:23:14.399Z,22.90
2018-07-02T03:25:42.718Z,23.00
2018-07-02T03:28:11.025Z,23.00
2018-07-02T03:30:39.410Z,23.00
2018-07-02T03:33:07.691Z,23.10
2018-07-02T03:35:36.035Z,23.10
2018-07-02T03:38:04.502Z,23.20
2018-07-02T03:40:32.799Z,23.20
2018-07-02T03:43:01.180Z,23.70
2018-07-02T03:45:29.541Z,23.30
2018-07-02T03:47:58.031Z,23.40
2018-07-02T03:50:26.641Z,23.30
2018-07-02T03:52:54.997Z,23.40
2018-07-02T03:55:23.294Z,23.40
2018-07-02T03:57:51.777Z,23.40
2018-07-02T04:00:20.167Z,23.50
2018-07-02T04:02:48.574Z,23.50
2018-07-02T04:05:16.969Z,23.50
2018-07-02T04:07:45.294Z,23.60
2018-07-02T04:10:13.708Z,23.80
2018-07-02T04:12:42.112Z,23.80
2018-07-02T04:15:10.770Z,23.80
2018-07-02T04:17:39.607Z,23.80
2018-07-02T04:20:08.088Z,23.90
2018-07-02T04:22:36.411Z,23.90
2018-07-02T04:25:04.714Z,23.90
2018-07-02T04:27:33.132Z,23.90
2018-07-02T04:30:01.692Z,24.00
2018-07-02T04:32:30.008Z,24.10
2018-07-02T04:34:58.347Z,24.10
2018-07-02T04:37:26.700Z,24.10
2018-07-02T04:39:55.259Z,24.10
2018-07-02T04:42:23.626Z,24.10
2018-07-02T04:44:52.057Z,24.20
2018-07-02T04:47:20.490Z,24.40
2018-07-02T04:49:48.854Z,24.70
2018-07-02T04:54:45.586Z,24.40
2018-07-02T04:57:13.972Z,24.40
2018-07-02T04:59:42.531Z,24.40
2018-07-02T05:02:10.844Z,24.50
2018-07-02T05:04:39.265Z,24.60
2018-07-02T05:07:07.656Z,24.60
2018-07-02T05:09:36.008Z,24.60
2018-07-02T05:12:04.636Z,24.60
2018-07-02T05:14:33.019Z,24.60
2018-07-02T05:17:01.463Z,24.70
2018-07-02T05:19:29.764Z,24.70
2018-07-02T05:21:58.139Z,24.80
2018-07-02T05:24:26.482Z,24.80
2018-07-02T05:26:54.863Z,24.80
2018-07-02T05:31:51.505Z,24.90
2018-07-02T05:34:19.892Z,24.90
2018-07-02T05:36:48.378Z,25.00
2018-07-02T05:39:16.843Z,25.00
2018-07-02T05:41:45.277Z,25.00
2018-07-02T05:44:13.648Z,25.50
2018-07-02T05:46:42.138Z,25.00
2018-07-02T05:49:10.530Z,25.10
2018-07-02T05:51:38.951Z,25.10
2018-07-02T05:54:07.278Z,25.10
2018-07-02T05:56:35.656Z,25.10
2018-07-02T05:59:04.108Z,25.20
2018-07-02T06:01:32.419Z,25.20
2018-07-02T06:04:00.782Z,25.30
2018-07-02T06:06:29.159Z,25.20
2018-07-02T06:08:57.467Z,25.20
2018-07-02T06:11:25.772Z,25.20
2018-07-02T06:13:54.183Z,25.30
2018-07-02T06:16:22.635Z,25.30
2018-07-02T06:18:50.987Z,25.30
2018-07-02T06:21:19.378Z,25.40
2018-07-02T06:23:47.729Z,25.90
2018-07-02T06:26:16.379Z,25.40
2018-07-02T06:28:44.786Z,25.50
2018-07-02T06:31:13.226Z,25.50
2018-07-02T06:33:41.584Z,25.60
2018-07-02T06:36:09.921Z,25.50
2018-07-02T06:38:38.428Z,25.50
2018-07-02T06:41:06.935Z,25.50
2018-07-02T06:43:35.405Z,25.50
2018-07-02T06:46:03.742Z,25.50
2018-07-02T06:48:32.188Z,25.60
2018-07-02T06:51:00.531Z,25.50
2018-07-02T06:53:28.891Z,25.50
2018-07-02T06:55:57.348Z,25.60
2018-07-02T06:58:25.676Z,26.00
2018-07-02T07:00:54.027Z,25.60
2018-07-02T07:03:22.467Z,25.70
2018-07-02T07:05:50.911Z,25.70
2018-07-02T07:08:19.327Z,25.70
2018-07-02T07:10:47.715Z,25.70
2018-07-02T07:13:16.085Z,26.10
2018-07-02T07:15:44.553Z,25.70
2018-07-02T07:18:12.915Z,25.70
2018-07-02T07:20:41.267Z,25.70
2018-07-02T07:23:09.577Z,25.70
2018-07-02T07:25:37.917Z,25.70
2018-07-02T07:28:06.358Z,25.70
2018-07-02T07:30:34.722Z,25.70
2018-07-02T07:33:03.151Z,25.70
2018-07-02T07:35:31.471Z,25.60
2018-07-02T07:37:59.792Z,25.60
2018-07-02T07:40:28.199Z,25.80
2018-07-02T07:42:56.582Z,25.70
2018-07-02T07:45:24.918Z,25.70
2018-07-02T07:47:53.236Z,25.80
2018-07-02T07:50:21.623Z,26.00
2018-07-02T07:52:50.194Z,26.30
2018-07-02T07:55:18.765Z,26.70
2018-07-02T07:57:47.119Z,27.00
2018-07-02T08:00:15.843Z,27.50
2018-07-02T08:02:44.285Z,27.80
2018-07-02T08:05:12.748Z,28.10
2018-07-02T08:07:45.307Z,28.30
2018-07-02T08:10:13.950Z,28.30
2018-07-02T08:12:42.419Z,28.20
2018-07-02T08:15:10.778Z,28.00
2018-07-02T08:17:39.107Z,27.80
2018-07-02T08:20:07.471Z,27.60
2018-07-02T08:22:35.843Z,27.30
2018-07-02T08:25:04.430Z,26.80
2018-07-02T08:27:32.952Z,26.50
2018-07-02T08:30:01.657Z,26.20
2018-07-02T08:32:29.983Z,26.00
2018-07-02T08:34:58.320Z,25.80
2018-07-02T08:37:26.699Z,25.50
2018-07-02T08:39:55.019Z,25.10
2018-07-02T08:42:23.327Z,24.70
2018-07-02T08:44:51.763Z,24.50
2018-07-02T08:47:20.131Z,24.30
2018-07-02T08:49:48.532Z,23.90
2018-07-02T08:52:17.089Z,23.60
2018-07-02T08:54:45.611Z,23.20
2018-07-02T08:57:14.197Z,23.00
2018-07-02T08:59:42.494Z,23.40
2018-07-02T09:02:10.844Z,22.70
2018-07-02T09:04:39.605Z,22.40
2018-07-02T09:07:08.189Z,22.10
2018-07-02T09:09:36.787Z,21.90
2018-07-02T09:12:05.128Z,21.60
2018-07-02T09:14:33.479Z,21.40
2018-07-02T09:17:01.894Z,21.20
2018-07-02T09:19:30.327Z,20.90
2018-07-02T09:21:58.635Z,20.60
2018-07-02T09:24:27.011Z,20.20
2018-07-02T09:26:55.359Z,19.90
2018-07-02T09:29:23.735Z,19.80
2018-07-02T09:31:52.089Z,19.70
2018-07-02T09:34:20.431Z,19.40
2018-07-02T09:36:48.926Z,19.20
2018-07-02T09:39:17.386Z,19.10
2018-07-02T09:41:46.453Z,18.90
2018-07-02T09:44:14.798Z,18.60
2018-07-02T09:46:43.170Z,18.30
2018-07-02T09:49:11.510Z,18.20
2018-07-02T09:51:39.916Z,18.10
2018-07-02T09:54:08.298Z,17.90
2018-07-02T09:56:36.682Z,17.40
2018-07-02T09:59:05.300Z,17.20
2018-07-02T10:01:33.634Z,16.90
2018-07-02T10:04:02.196Z,16.60
2018-07-02T10:06:30.601Z,16.40
2018-07-02T10:08:58.907Z,16.30
2018-07-02T10:11:27.227Z,16.20
2018-07-02T10:13:55.606Z,16.00
2018-07-02T10:16:23.986Z,15.90
2018-07-02T10:18:52.422Z,15.80
2018-07-02T10:21:20.901Z,15.60
2018-07-02T10:23:49.270Z,15.50
2018-07-02T10:26:17.772Z,15.20
2018-07-02T10:28:46.110Z,14.90
2018-07-02T10:31:14.570Z,14.80
2018-07-02T10:33:42.882Z,14.70
2018-07-02T10:36:11.283Z,14.50
2018-07-02T10:38:40.156Z,14.40
2018-07-02T10:41:08.607Z,14.20
2018-07-02T10:43:36.901Z,14.00
2018-07-02T10:46:05.372Z,13.90
2018-07-02T10:48:33.718Z,13.70
2018-07-02T10:51:02.068Z,13.60
2018-07-02T10:53:30.363Z,13.40
2018-07-02T10:55:58.860Z,13.30
2018-07-02T10:58:27.211Z,13.20
2018-07-02T11:00:55.592Z,13.10
2018-07-02T11:03:23.960Z,13.00
2018-07-02T11:05:52.289Z,12.90
2018-07-02T11:08:20.843Z,12.80
2018-07-02T11:10:49.308Z,12.70
2018-07-02T11:15:45.666Z,12.50
2018-07-02T11:18:14.122Z,12.10
2018-07-02T11:20:42.567Z,12.10
2018-07-02T11:23:11.083Z,12.00
2018-07-02T11:25:39.840Z,12.10
2018-07-02T11:28:08.190Z,11.90
2018-07-02T11:30:36.668Z,11.50
2018-07-02T11:33:05.152Z,11.60
2018-07-02T11:35:33.499Z,11.70
2018-07-02T11:38:02.228Z,11.70
2018-07-02T11:40:30.567Z,11.60
2018-07-02T11:42:58.947Z,11.50
2018-07-02T11:45:27.370Z,11.30
2018-07-02T11:47:56.152Z,11.20
2018-07-02T11:50:24.527Z,11.10
2018-07-02T11:52:52.827Z,10.90
2018-07-02T11:55:21.248Z,10.80
2018-07-02T11:57:49.683Z,11.30
2018-07-02T12:00:18.147Z,10.60
2018-07-02T12:02:46.521Z,10.60
2018-07-02T12:05:14.958Z,10.50
2018-07-02T12:07:43.354Z,10.60
2018-07-02T12:10:11.791Z,10.60
2018-07-02T12:12:40.269Z,10.50
2018-07-02T12:15:08.783Z,11.00
2018-07-02T12:17:37.187Z,10.30
2018-07-02T12:20:06.064Z,10.20
2018-07-02T12:22:34.438Z,10.00
2018-07-02T12:25:02.842Z,10.00
2018-07-02T12:27:31.218Z,9.90
2018-07-02T12:29:59.574Z,9.80
2018-07-02T12:32:27.922Z,9.70
2018-07-02T12:34:56.543Z,9.70
2018-07-02T12:37:24.979Z,9.60
2018-07-02T12:39:53.380Z,9.60
2018-07-02T12:42:21.747Z,9.60
2018-07-02T12:44:50.056Z,9.60
2018-07-02T12:47:18.504Z,9.50
2018-07-02T12:49:46.882Z,9.50
2018-07-02T12:52:15.210Z,9.40
2018-07-02T12:54:43.533Z,9.20
2018-07-02T12:57:11.880Z,9.10
2018-07-02T12:59:40.168Z,9.20
2018-07-02T13:02:08.730Z,9.10
2018-07-02T13:04:37.110Z,9.10
2018-07-02T13:07:05.643Z,9.00
2018-07-02T13:09:33.920Z,8.90
2018-07-02T13:12:02.270Z,8.80
2018-07-02T13:14:30.607Z,8.80
2018-07-02T13:16:58.970Z,8.80
2018-07-02T13:19:27.303Z,8.90
2018-07-02T13:21:55.628Z,8.80
2018-07-02T13:24:23.996Z,8.70
2018-07-02T13:26:52.504Z,8.60
2018-07-02T13:29:20.864Z,8.50
2018-07-02T13:31:49.271Z,8.50
2018-07-02T13:34:17.647Z,8.40
2018-07-02T13:36:46.111Z,8.40
2018-07-02T13:39:14.599Z,8.20
2018-07-02T13:41:43.138Z,8.10
2018-07-02T13:44:11.559Z,8.10
2018-07-02T13:46:39.965Z,8.00
2018-07-02T13:49:08.357Z,7.80
2018-07-02T13:51:37.566Z,8.00
2018-07-02T13:54:06.007Z,8.00
2018-07-02T13:56:35.124Z,8.00
2018-07-02T13:59:03.722Z,8.00
2018-07-02T14:01:32.042Z,7.80
2018-07-02T14:04:00.327Z,7.70
2018-07-02T14:06:28.674Z,7.20
2018-07-02T14:08:57.009Z,7.60
2018-07-02T14:11:25.303Z,7.70
2018-07-02T14:13:53.671Z,7.70
2018-07-02T14:16:22.007Z,7.70
2018-07-02T14:18:50.383Z,7.50
2018-07-02T14:21:18.804Z,7.60
2018-07-02T14:23:47.150Z,7.60
2018-07-02T14:26:15.445Z,7.60
2018-07-02T14:28:43.846Z,7.60
2018-07-02T14:31:12.241Z,7.40
2018-07-02T14:33:40.642Z,7.50
2018-07-02T14:36:09.043Z,7.50
2018-07-02T14:41:05.564Z,7.60
2018-07-02T14:43:34.088Z,7.50
2018-07-02T14:46:02.496Z,7.30
2018-07-02T14:48:30.830Z,7.30
2018-07-02T14:50:59.236Z,7.20
2018-07-02T14:53:27.604Z,7.10
2018-07-02T14:55:56.016Z,7.00
2018-07-02T14:58:24.431Z,7.10
2018-07-02T15:00:52.892Z,7.80
2018-07-02T15:03:21.408Z,7.20
2018-07-02T15:05:49.892Z,7.20
2018-07-02T15:08:18.537Z,7.20
2018-07-02T15:10:47.202Z,7.20
2018-07-02T15:13:15.691Z,7.20
2018-07-02T15:15:44.112Z,7.20
2018-07-02T15:18:13.314Z,7.10
2018-07-02T15:20:42.033Z,7.20
2018-07-02T15:23:11.894Z,7.10
2018-07-02T15:25:40.390Z,7.30
2018-07-02T15:28:08.734Z,7.30
2018-07-02T15:30:37.104Z,7.40
2018-07-02T15:33:05.447Z,7.30
2018-07-02T15:35:34.072Z,7.20
2018-07-02T15:38:03.506Z,7.20
2018-07-02T15:40:31.912Z,7.20
2018-07-02T15:43:00.230Z,7.30
2018-07-02T15:45:28.653Z,7.10
2018-07-02T15:47:57.018Z,7.20
2018-07-02T15:50:25.589Z,7.10
2018-07-02T15:52:54.720Z,7.00
2018-07-02T15:55:23.046Z,7.10
2018-07-02T15:57:51.368Z,7.10
2018-07-02T16:00:19.692Z,7.10
2018-07-02T16:02:48.201Z,7.20
2018-07-02T16:05:16.891Z,7.20
2018-07-02T16:07:45.467Z,7.30
2018-07-02T16:10:13.958Z,7.20
2018-07-02T16:12:42.327Z,7.30
2018-07-02T16:15:10.743Z,7.40
2018-07-02T16:17:39.162Z,7.50
2018-07-02T16:20:07.494Z,7.60
2018-07-02T16:22:35.766Z,7.80
2018-07-02T16:25:04.338Z,8.00
2018-07-02T16:27:32.746Z,8.30
2018-07-02T16:30:01.088Z,8.50
2018-07-02T16:32:30.052Z,8.60
2018-07-02T16:34:58.478Z,8.80
2018-07-02T16:37:26.855Z,9.00
2018-07-02T16:39:55.159Z,9.20
2018-07-02T16:42:23.499Z,9.30
2018-07-02T16:44:51.850Z,9.50
2018-07-02T16:47:20.255Z,9.70
2018-07-02T16:49:48.535Z,9.70
2018-07-02T16:52:16.878Z,9.80
2018-07-02T16:54:45.371Z,9.90
2018-07-02T16:57:13.792Z,10.00
2018-07-02T16:59:42.534Z,10.00
2018-07-02T17:02:10.943Z,10.20
2018-07-02T17:04:39.275Z,10.20
2018-07-02T17:07:07.649Z,10.30
2018-07-02T17:09:36.226Z,10.50
2018-07-02T17:12:04.598Z,10.50
2018-07-02T17:14:32.919Z,10.90
2018-07-02T17:17:01.303Z,10.80
2018-07-02T17:19:29.720Z,10.90
2018-07-02T17:21:58.122Z,10.90
2018-07-02T17:24:26.455Z,11.00
2018-07-02T17:29:22.834Z,11.20
2018-07-02T17:31:51.108Z,11.30
2018-07-02T17:34:19.519Z,11.30
2018-07-02T17:36:47.803Z,11.40
2018-07-02T17:39:16.158Z,11.40
2018-07-02T17:41:44.499Z,11.60
2018-07-02T17:44:13.012Z,11.70
2018-07-02T17:46:41.377Z,11.80
2018-07-02T17:49:09.735Z,11.80
2018-07-02T17:51:38.115Z,11.90
2018-07-02T17:54:06.510Z,12.00
2018-07-02T17:56:34.959Z,12.10
2018-07-02T17:59:03.350Z,12.00
2018-07-02T18:01:31.690Z,12.10
2018-07-02T18:04:00.089Z,12.20
2018-07-02T18:06:28.398Z,12.20
2018-07-02T18:08:56.871Z,12.40
2018-07-02T18:11:25.204Z,12.40
2018-07-02T18:13:53.920Z,12.30
2018-07-02T18:16:22.311Z,12.40
2018-07-02T18:18:50.639Z,12.50
2018-07-02T18:21:19.638Z,12.50
2018-07-02T18:23:48.055Z,12.60
2018-07-02T18:26:16.499Z,12.60
2018-07-02T18:28:44.801Z,12.80
2018-07-02T18:31:13.484Z,12.80
2018-07-02T18:33:41.917Z,12.90
2018-07-02T18:36:10.366Z,13.30
2018-07-02T18:38:38.707Z,13.00
2018-07-02T18:41:07.029Z,13.10
2018-07-02T18:43:35.460Z,13.10
2018-07-02T18:46:03.993Z,13.10
2018-07-02T18:48:32.414Z,13.20
2018-07-02T18:51:00.743Z,13.20
2018-07-02T18:55:57.206Z,13.40
2018-07-02T18:58:25.593Z,13.50
2018-07-02T19:00:53.985Z,13.60
2018-07-02T19:03:22.358Z,13.60
2018-07-02T19:05:50.893Z,13.60
2018-07-02T19:08:19.540Z,13.80
2018-07-02T19:10:47.910Z,13.80
2018-07-02T19:13:16.450Z,13.90
2018-07-02T19:15:44.868Z,13.90
2018-07-02T19:18:13.268Z,14.10
2018-07-02T19:20:42.042Z,14.10
2018-07-02T19:23:10.583Z,14.20
2018-07-02T19:25:39.032Z,14.30
2018-07-02T19:28:07.339Z,14.30
2018-07-02T19:30:35.708Z,14.40
2018-07-02T19:33:04.671Z,14.50
2018-07-02T19:35:33.185Z,14.60
2018-07-02T19:38:01.551Z,14.60
2018-07-02T19:40:29.883Z,14.70
2018-07-02T19:42:58.345Z,14.80
2018-07-02T19:45:26.643Z,14.90
2018-07-02T19:47:55.108Z,15.10
2018-07-02T19:50:24.428Z,15.10
2018-07-02T19:52:52.783Z,15.30
2018-07-02T19:55:21.192Z,15.30
2018-07-02T19:57:49.535Z,15.90
2018-07-02T20:00:18.147Z,16.00
2018-07-02T20:02:46.551Z,15.50
2018-07-02T20:05:14.956Z,15.60
2018-07-02T20:07:43.256Z,15.60
2018-07-02T20:10:11.627Z,15.70
2018-07-02T20:12:39.939Z,16.00
2018-07-02T20:15:08.462Z,15.90
2018-07-02T20:17:36.840Z,16.10
2018-07-02T20:20:07.899Z,16.00
2018-07-02T20:25:04.356Z,16.20
2018-07-02T20:27:32.751Z,16.30
2018-07-02T20:30:01.099Z,16.30
2018-07-02T20:32:29.438Z,16.90
2018-07-02T20:34:57.776Z,16.40
2018-07-02T20:37:26.087Z,16.50
2018-07-02T20:39:54.447Z,16.60
2018-07-02T20:42:22.942Z,16.80
2018-07-02T20:44:51.316Z,17.20
2018-07-02T20:47:19.730Z,16.90
2018-07-02T20:49:48.076Z,16.90
2018-07-02T20:52:16.571Z,17.50
2018-07-02T20:54:44.879Z,17.70
2018-07-02T20:57:13.456Z,17.70
2018-07-02T20:59:42.012Z,17.20
2018-07-02T21:02:10.424Z,17.30
2018-07-02T21:04:38.819Z,17.30
2018-07-02T21:07:07.228Z,17.50
2018-07-02T21:09:35.589Z,18.10
2018-07-02T21:12:03.935Z,17.60
2018-07-02T21:14:32.225Z,17.70
2018-07-02T21:17:00.538Z,17.80
2018-07-02T21:19:28.864Z,17.80
2018-07-02T21:21:57.323Z,17.90
2018-07-02T21:24:25.803Z,17.90
2018-07-02T21:26:54.092Z,18.00
2018-07-02T21:29:22.499Z,18.00
2018-07-02T21:31:50.839Z,18.10
2018-07-02T21:34:19.338Z,18.20
2018-07-02T21:36:47.691Z,18.20
2018-07-02T21:39:16.084Z,18.30
2018-07-02T21:41:44.468Z,18.40
2018-07-02T21:44:12.840Z,18.40
2018-07-02T21:46:41.145Z,18.50
2018-07-02T21:49:09.511Z,18.60
2018-07-02T21:51:37.822Z,18.60
2018-07-02T21:54:06.148Z,18.70
2018-07-02T21:56:34.601Z,18.70
2018-07-02T21:59:04.048Z,18.80
2018-07-02T22:01:32.357Z,18.80
2018-07-02T22:04:00.691Z,18.90
2018-07-02T22:06:29.004Z,19.00
2018-07-02T22:08:57.347Z,19.00
2018-07-02T22:11:25.668Z,19.10
2018-07-02T22:13:54.000Z,19.20
2018-07-02T22:16:22.385Z,19.20
2018-07-02T22:18:50.758Z,19.30
2018-07-02T22:21:19.363Z,19.30
2018-07-02T22:23:47.739Z,19.40
2018-07-02T22:26:16.181Z,19.40
2018-07-02T22:28:44.627Z,19.50
2018-07-02T22:31:13.022Z,19.60
2018-07-02T22:33:41.350Z,19.60
2018-07-02T22:36:09.636Z,20.20
2018-07-02T22:38:38.028Z,19.70
2018-07-02T22:41:06.360Z,19.80
2018-07-02T22:43:34.703Z,19.90
2018-07-02T22:46:03.069Z,19.90
2018-07-02T22:48:31.366Z,20.00
2018-07-02T22:50:59.675Z,20.00
2018-07-02T22:53:27.995Z,20.10
2018-07-02T22:55:59.758Z,20.10
2018-07-02T22:58:28.062Z,20.20
2018-07-02T23:00:56.979Z,20.30
2018-07-02T23:03:25.602Z,20.30
2018-07-02T23:05:54.001Z,20.30
2018-07-02T23:08:22.416Z,20.50
2018-07-02T23:10:50.830Z,20.60
2018-07-02T23:13:19.227Z,20.60
2018-07-02T23:15:47.898Z,20.60
2018-07-02T23:18:16.379Z,20.60
2018-07-02T23:20:44.775Z,20.70
2018-07-02T23:23:13.098Z,20.80
2018-07-02T23:25:41.551Z,20.80
2018-07-02T23:28:09.960Z,20.80
2018-07-02T23:30:38.298Z,20.80
2018-07-02T23:33:06.627Z,21.00
2018-07-02T23:35:34.971Z,21.00
2018-07-02T23:38:03.314Z,21.00
2018-07-02T23:40:31.667Z,20.90
2018-07-02T23:43:00.089Z,21.00
2018-07-02T23:45:28.446Z,21.00
2018-07-02T23:47:56.868Z,21.00
2018-07-02T23:50:31.624Z,21.10
2018-07-02T23:52:59.975Z,21.10
2018-07-02T23:55:28.303Z,21.60
2018-07-02T23:57:56.691Z,21.10
